sensor_id;sensor_type;location;lat;lon;timestamp;P1;durP1;ratioP1;P2;durP2;ratioP2
75926;SDS011;64605;48.296;16.416;2023-02-28T00:01:29;21.45;;;10.55;;
75926;SDS011;64605;48.296;16.416;2023-02-28T00:03:56;15.55;;;11.23;;
75926;SDS011;64605;48.296;16.416;2023-02-28T00:06:21;17.08;;;11.00;;
75926;SDS011;64605;48.296;16.416;2023-02-28T00:08:47;17.77;;;11.80;;
75926;SDS011;64605;48.296;16.416;2023-02-28T00:11:13;16.15;;;10.35;;
75926;SDS011;64605;48.296;16.416;2023-02-28T00:13:41;14.85;;;10.23;;
75926;SDS011;64605;48.296;16.416;2023-02-28T00:16:12;18.42;;;12.05;;
75926;SDS011;64605;48.296;16.416;2023-02-28T00:18:47;23.23;;;12.52;;
75926;SDS011;64605;48.296;16.416;2023-02-28T00:21:13;18.80;;;11.32;;
75926;SDS011;64605;48.296;16.416;2023-02-28T00:23:40;20.30;;;12.35;;
75926;SDS011;64605;48.296;16.416;2023-02-28T00:26:05;16.67;;;11.68;;
75926;SDS011;64605;48.296;16.416;2023-02-28T00:28:31;17.05;;;11.93;;
75926;SDS011;64605;48.296;16.416;2023-02-28T00:30:57;15.70;;;10.90;;
75926;SDS011;64605;48.296;16.416;2023-02-28T00:33:24;16.75;;;11.13;;
75926;SDS011;64605;48.296;16.416;2023-02-28T00:35:50;15.15;;;10.48;;
75926;SDS011;64605;48.296;16.416;2023-02-28T00:38:16;20.20;;;12.02;;
75926;SDS011;64605;48.296;16.416;2023-02-28T00:40:42;19.00;;;12.05;;
75926;SDS011;64605;48.296;16.416;2023-02-28T00:43:08;18.48;;;11.80;;
75926;SDS011;64605;48.296;16.416;2023-02-28T00:45:33;17.52;;;12.23;;
75926;SDS011;64605;48.296;16.416;2023-02-28T00:47:59;16.65;;;11.23;;
75926;SDS011;64605;48.296;16.416;2023-02-28T00:50:25;18.75;;;11.75;;
75926;SDS011;64605;48.296;16.416;2023-02-28T00:52:50;18.45;;;11.52;;
75926;SDS011;64605;48.296;16.416;2023-02-28T00:55:16;18.02;;;12.32;;
75926;SDS011;64605;48.296;16.416;2023-02-28T00:57:42;17.30;;;11.40;;
75926;SDS011;64605;48.296;16.416;2023-02-28T01:00:07;16.00;;;11.27;;
75926;SDS011;64605;48.296;16.416;2023-02-28T01:02:34;17.48;;;11.23;;
75926;SDS011;64605;48.296;16.416;2023-02-28T01:04:59;22.35;;;11.95;;
75926;SDS011;64605;48.296;16.416;2023-02-28T01:07:25;16.70;;;12.70;;
75926;SDS011;64605;48.296;16.416;2023-02-28T01:09:51;20.15;;;12.57;;
75926;SDS011;64605;48.296;16.416;2023-02-28T01:12:16;18.13;;;11.95;;
75926;SDS011;64605;48.296;16.416;2023-02-28T01:14:42;18.83;;;12.55;;
75926;SDS011;64605;48.296;16.416;2023-02-28T01:17:08;17.00;;;11.95;;
75926;SDS011;64605;48.296;16.416;2023-02-28T01:19:34;18.30;;;12.18;;
75926;SDS011;64605;48.296;16.416;2023-02-28T01:22:01;20.08;;;12.05;;
75926;SDS011;64605;48.296;16.416;2023-02-28T01:24:30;17.02;;;12.10;;
75926;SDS011;64605;48.296;16.416;2023-02-28T01:26:57;16.50;;;11.75;;
75926;SDS011;64605;48.296;16.416;2023-02-28T01:29:22;17.38;;;11.45;;
75926;SDS011;64605;48.296;16.416;2023-02-28T01:31:48;19.27;;;11.70;;
75926;SDS011;64605;48.296;16.416;2023-02-28T01:34:13;22.15;;;12.43;;
75926;SDS011;64605;48.296;16.416;2023-02-28T01:36:39;18.27;;;11.65;;
75926;SDS011;64605;48.296;16.416;2023-02-28T01:39:05;18.55;;;12.15;;
75926;SDS011;64605;48.296;16.416;2023-02-28T01:41:31;18.10;;;11.10;;
75926;SDS011;64605;48.296;16.416;2023-02-28T01:46:51;20.38;;;11.93;;
75926;SDS011;64605;48.296;16.416;2023-02-28T01:49:16;22.83;;;12.90;;
75926;SDS011;64605;48.296;16.416;2023-02-28T01:51:47;17.70;;;12.00;;
75926;SDS011;64605;48.296;16.416;2023-02-28T01:54:26;18.38;;;12.82;;
75926;SDS011;64605;48.296;16.416;2023-02-28T01:57:04;17.63;;;11.77;;
75926;SDS011;64605;48.296;16.416;2023-02-28T01:59:57;20.95;;;13.07;;
75926;SDS011;64605;48.296;16.416;2023-02-28T02:02:26;21.42;;;12.85;;
75926;SDS011;64605;48.296;16.416;2023-02-28T02:05:05;19.48;;;12.00;;
75926;SDS011;64605;48.296;16.416;2023-02-28T02:07:33;19.65;;;12.48;;
75926;SDS011;64605;48.296;16.416;2023-02-28T02:10:03;21.63;;;12.38;;
75926;SDS011;64605;48.296;16.416;2023-02-28T02:26:28;20.27;;;13.25;;
75926;SDS011;64605;48.296;16.416;2023-02-28T02:34:59;19.63;;;11.85;;
75926;SDS011;64605;48.296;16.416;2023-02-28T02:42:56;18.92;;;13.30;;
75926;SDS011;64605;48.296;16.416;2023-02-28T02:48:05;19.80;;;13.13;;
75926;SDS011;64605;48.296;16.416;2023-02-28T02:50:38;21.13;;;13.25;;
75926;SDS011;64605;48.296;16.416;2023-02-28T02:53:08;21.05;;;13.32;;
75926;SDS011;64605;48.296;16.416;2023-02-28T02:55:37;20.90;;;13.45;;
75926;SDS011;64605;48.296;16.416;2023-02-28T02:58:08;19.63;;;12.55;;
75926;SDS011;64605;48.296;16.416;2023-02-28T03:00:41;18.08;;;12.10;;
75926;SDS011;64605;48.296;16.416;2023-02-28T03:03:11;21.17;;;13.60;;
75926;SDS011;64605;48.296;16.416;2023-02-28T03:05:48;20.08;;;13.40;;
75926;SDS011;64605;48.296;16.416;2023-02-28T03:08:15;21.50;;;13.95;;
75926;SDS011;64605;48.296;16.416;2023-02-28T03:10:42;20.15;;;12.20;;
75926;SDS011;64605;48.296;16.416;2023-02-28T03:18:43;20.20;;;12.50;;
75926;SDS011;64605;48.296;16.416;2023-02-28T03:24:07;20.80;;;12.88;;
75926;SDS011;64605;48.296;16.416;2023-02-28T03:26:43;20.70;;;13.00;;
75926;SDS011;64605;48.296;16.416;2023-02-28T03:31:48;20.35;;;13.07;;
75926;SDS011;64605;48.296;16.416;2023-02-28T03:34:26;19.48;;;12.57;;
75926;SDS011;64605;48.296;16.416;2023-02-28T03:36:59;19.95;;;12.80;;
75926;SDS011;64605;48.296;16.416;2023-02-28T03:39:36;20.17;;;13.30;;
75926;SDS011;64605;48.296;16.416;2023-02-28T03:42:11;21.15;;;13.20;;
75926;SDS011;64605;48.296;16.416;2023-02-28T03:44:48;18.85;;;12.85;;
75926;SDS011;64605;48.296;16.416;2023-02-28T03:47:31;19.75;;;13.00;;
75926;SDS011;64605;48.296;16.416;2023-02-28T03:50:08;19.50;;;12.10;;
75926;SDS011;64605;48.296;16.416;2023-02-28T03:52:49;19.65;;;13.45;;
75926;SDS011;64605;48.296;16.416;2023-02-28T03:55:25;22.73;;;13.55;;
75926;SDS011;64605;48.296;16.416;2023-02-28T03:58:01;19.23;;;12.90;;
75926;SDS011;64605;48.296;16.416;2023-02-28T04:00:49;20.13;;;13.13;;
75926;SDS011;64605;48.296;16.416;2023-02-28T04:03:20;20.50;;;13.23;;
75926;SDS011;64605;48.296;16.416;2023-02-28T04:05:50;21.98;;;13.95;;
75926;SDS011;64605;48.296;16.416;2023-02-28T04:08:18;19.38;;;14.15;;
75926;SDS011;64605;48.296;16.416;2023-02-28T04:10:44;23.65;;;15.15;;
75926;SDS011;64605;48.296;16.416;2023-02-28T04:13:15;29.42;;;17.35;;
75926;SDS011;64605;48.296;16.416;2023-02-28T04:15:41;32.33;;;20.05;;
75926;SDS011;64605;48.296;16.416;2023-02-28T04:18:07;29.92;;;19.33;;
75926;SDS011;64605;48.296;16.416;2023-02-28T04:20:33;26.60;;;16.83;;
75926;SDS011;64605;48.296;16.416;2023-02-28T04:22:58;23.73;;;15.25;;
75926;SDS011;64605;48.296;16.416;2023-02-28T04:25:24;22.40;;;13.57;;
75926;SDS011;64605;48.296;16.416;2023-02-28T04:27:49;25.00;;;14.93;;
75926;SDS011;64605;48.296;16.416;2023-02-28T04:30:15;25.88;;;14.95;;
75926;SDS011;64605;48.296;16.416;2023-02-28T04:32:41;22.70;;;14.13;;
75926;SDS011;64605;48.296;16.416;2023-02-28T04:35:07;23.27;;;14.10;;
75926;SDS011;64605;48.296;16.416;2023-02-28T04:37:33;23.55;;;13.98;;
75926;SDS011;64605;48.296;16.416;2023-02-28T04:40:00;23.00;;;13.48;;
75926;SDS011;64605;48.296;16.416;2023-02-28T04:42:26;22.38;;;12.48;;
75926;SDS011;64605;48.296;16.416;2023-02-28T04:44:51;22.55;;;13.80;;
75926;SDS011;64605;48.296;16.416;2023-02-28T04:47:17;20.55;;;13.65;;
75926;SDS011;64605;48.296;16.416;2023-02-28T04:49:43;21.55;;;14.40;;
75926;SDS011;64605;48.296;16.416;2023-02-28T04:52:08;19.65;;;13.63;;
75926;SDS011;64605;48.296;16.416;2023-02-28T04:54:35;23.98;;;13.63;;
75926;SDS011;64605;48.296;16.416;2023-02-28T04:57:00;21.20;;;13.77;;
75926;SDS011;64605;48.296;16.416;2023-02-28T04:59:26;19.35;;;12.95;;
75926;SDS011;64605;48.296;16.416;2023-02-28T05:01:52;22.50;;;13.68;;
75926;SDS011;64605;48.296;16.416;2023-02-28T05:04:18;22.55;;;14.40;;
75926;SDS011;64605;48.296;16.416;2023-02-28T05:06:44;24.20;;;14.52;;
75926;SDS011;64605;48.296;16.416;2023-02-28T05:09:09;19.00;;;13.18;;
75926;SDS011;64605;48.296;16.416;2023-02-28T05:11:38;21.88;;;13.88;;
75926;SDS011;64605;48.296;16.416;2023-02-28T05:14:06;25.30;;;14.50;;
75926;SDS011;64605;48.296;16.416;2023-02-28T05:16:35;21.90;;;14.00;;
75926;SDS011;64605;48.296;16.416;2023-02-28T05:19:01;21.17;;;14.48;;
75926;SDS011;64605;48.296;16.416;2023-02-28T05:21:31;23.80;;;14.10;;
75926;SDS011;64605;48.296;16.416;2023-02-28T05:24:05;24.10;;;14.68;;
75926;SDS011;64605;48.296;16.416;2023-02-28T05:26:34;22.75;;;14.48;;
75926;SDS011;64605;48.296;16.416;2023-02-28T05:29:01;24.15;;;14.18;;
75926;SDS011;64605;48.296;16.416;2023-02-28T05:31:27;26.25;;;16.13;;
75926;SDS011;64605;48.296;16.416;2023-02-28T05:33:52;20.83;;;14.02;;
75926;SDS011;64605;48.296;16.416;2023-02-28T05:36:18;20.48;;;14.25;;
75926;SDS011;64605;48.296;16.416;2023-02-28T05:38:48;20.10;;;14.77;;
75926;SDS011;64605;48.296;16.416;2023-02-28T05:41:15;26.25;;;15.68;;
75926;SDS011;64605;48.296;16.416;2023-02-28T05:43:41;22.65;;;14.90;;
75926;SDS011;64605;48.296;16.416;2023-02-28T05:46:07;24.88;;;16.23;;
75926;SDS011;64605;48.296;16.416;2023-02-28T05:48:34;23.73;;;13.88;;
75926;SDS011;64605;48.296;16.416;2023-02-28T05:51:02;25.48;;;15.93;;
75926;SDS011;64605;48.296;16.416;2023-02-28T05:53:28;22.23;;;14.63;;
75926;SDS011;64605;48.296;16.416;2023-02-28T05:55:54;26.92;;;15.00;;
75926;SDS011;64605;48.296;16.416;2023-02-28T05:58:20;26.30;;;15.70;;
75926;SDS011;64605;48.296;16.416;2023-02-28T06:00:46;23.23;;;16.10;;
75926;SDS011;64605;48.296;16.416;2023-02-28T06:03:12;28.65;;;16.73;;
75926;SDS011;64605;48.296;16.416;2023-02-28T06:05:37;31.67;;;19.73;;
75926;SDS011;64605;48.296;16.416;2023-02-28T06:08:03;26.42;;;17.20;;
75926;SDS011;64605;48.296;16.416;2023-02-28T06:10:32;28.85;;;14.63;;
75926;SDS011;64605;48.296;16.416;2023-02-28T06:13:01;22.77;;;15.10;;
75926;SDS011;64605;48.296;16.416;2023-02-28T06:15:27;25.23;;;15.75;;
75926;SDS011;64605;48.296;16.416;2023-02-28T06:17:54;26.45;;;16.23;;
75926;SDS011;64605;48.296;16.416;2023-02-28T06:20:21;23.55;;;16.60;;
75926;SDS011;64605;48.296;16.416;2023-02-28T06:22:48;22.60;;;15.60;;
75926;SDS011;64605;48.296;16.416;2023-02-28T06:25:15;26.20;;;15.80;;
75926;SDS011;64605;48.296;16.416;2023-02-28T06:27:41;22.15;;;14.50;;
75926;SDS011;64605;48.296;16.416;2023-02-28T06:30:08;23.48;;;14.63;;
75926;SDS011;64605;48.296;16.416;2023-02-28T06:32:35;22.85;;;14.57;;
75926;SDS011;64605;48.296;16.416;2023-02-28T06:35:01;26.67;;;15.90;;
75926;SDS011;64605;48.296;16.416;2023-02-28T06:37:27;31.00;;;18.30;;
75926;SDS011;64605;48.296;16.416;2023-02-28T06:39:53;29.67;;;17.55;;
75926;SDS011;64605;48.296;16.416;2023-02-28T06:42:21;29.30;;;17.92;;
75926;SDS011;64605;48.296;16.416;2023-02-28T06:44:49;28.65;;;16.48;;
75926;SDS011;64605;48.296;16.416;2023-02-28T06:47:15;22.45;;;15.00;;
75926;SDS011;64605;48.296;16.416;2023-02-28T06:49:41;22.33;;;14.30;;
75926;SDS011;64605;48.296;16.416;2023-02-28T06:52:07;27.73;;;15.57;;
75926;SDS011;64605;48.296;16.416;2023-02-28T06:54:35;20.55;;;13.93;;
75926;SDS011;64605;48.296;16.416;2023-02-28T06:57:01;21.77;;;14.98;;
75926;SDS011;64605;48.296;16.416;2023-02-28T06:59:27;21.67;;;15.13;;
75926;SDS011;64605;48.296;16.416;2023-02-28T07:01:53;21.25;;;14.25;;
75926;SDS011;64605;48.296;16.416;2023-02-28T07:04:20;23.73;;;15.70;;
75926;SDS011;64605;48.296;16.416;2023-02-28T07:06:46;25.10;;;15.13;;
75926;SDS011;64605;48.296;16.416;2023-02-28T07:09:11;23.50;;;14.70;;
75926;SDS011;64605;48.296;16.416;2023-02-28T07:11:38;22.30;;;14.57;;
75926;SDS011;64605;48.296;16.416;2023-02-28T07:14:05;22.17;;;14.75;;
75926;SDS011;64605;48.296;16.416;2023-02-28T07:16:31;28.65;;;15.88;;
75926;SDS011;64605;48.296;16.416;2023-02-28T07:18:57;23.35;;;15.18;;
75926;SDS011;64605;48.296;16.416;2023-02-28T07:21:23;23.27;;;15.77;;
75926;SDS011;64605;48.296;16.416;2023-02-28T07:23:49;21.83;;;15.18;;
75926;SDS011;64605;48.296;16.416;2023-02-28T07:26:16;22.52;;;14.90;;
75926;SDS011;64605;48.296;16.416;2023-02-28T07:28:44;19.77;;;15.25;;
75926;SDS011;64605;48.296;16.416;2023-02-28T07:31:10;23.23;;;15.80;;
75926;SDS011;64605;48.296;16.416;2023-02-28T07:33:38;22.83;;;16.20;;
75926;SDS011;64605;48.296;16.416;2023-02-28T07:36:06;23.95;;;15.15;;
75926;SDS011;64605;48.296;16.416;2023-02-28T07:38:40;22.25;;;14.80;;
75926;SDS011;64605;48.296;16.416;2023-02-28T07:41:07;23.55;;;15.55;;
75926;SDS011;64605;48.296;16.416;2023-02-28T07:43:33;24.15;;;15.98;;
75926;SDS011;64605;48.296;16.416;2023-02-28T07:46:06;23.15;;;15.45;;
75926;SDS011;64605;48.296;16.416;2023-02-28T07:48:33;23.02;;;15.77;;
75926;SDS011;64605;48.296;16.416;2023-02-28T07:50:59;23.17;;;16.13;;
75926;SDS011;64605;48.296;16.416;2023-02-28T07:53:25;21.98;;;16.23;;
75926;SDS011;64605;48.296;16.416;2023-02-28T07:55:59;24.75;;;16.33;;
75926;SDS011;64605;48.296;16.416;2023-02-28T07:58:25;24.27;;;15.57;;
75926;SDS011;64605;48.296;16.416;2023-02-28T08:00:52;21.17;;;15.07;;
75926;SDS011;64605;48.296;16.416;2023-02-28T08:03:18;24.02;;;16.02;;
75926;SDS011;64605;48.296;16.416;2023-02-28T08:05:44;25.00;;;15.65;;
75926;SDS011;64605;48.296;16.416;2023-02-28T08:08:10;23.02;;;15.77;;
75926;SDS011;64605;48.296;16.416;2023-02-28T08:10:36;24.00;;;15.77;;
75926;SDS011;64605;48.296;16.416;2023-02-28T08:13:02;24.50;;;16.20;;
75926;SDS011;64605;48.296;16.416;2023-02-28T08:15:27;22.38;;;15.60;;
75926;SDS011;64605;48.296;16.416;2023-02-28T08:17:53;24.38;;;15.52;;
75926;SDS011;64605;48.296;16.416;2023-02-28T08:20:21;23.05;;;15.65;;
75926;SDS011;64605;48.296;16.416;2023-02-28T08:22:47;22.33;;;16.13;;
75926;SDS011;64605;48.296;16.416;2023-02-28T08:25:13;24.92;;;17.48;;
75926;SDS011;64605;48.296;16.416;2023-02-28T08:27:39;25.10;;;15.50;;
75926;SDS011;64605;48.296;16.416;2023-02-28T08:30:05;22.13;;;16.65;;
75926;SDS011;64605;48.296;16.416;2023-02-28T08:32:32;22.70;;;16.00;;
75926;SDS011;64605;48.296;16.416;2023-02-28T08:34:58;25.40;;;18.38;;
75926;SDS011;64605;48.296;16.416;2023-02-28T08:37:24;23.90;;;18.17;;
75926;SDS011;64605;48.296;16.416;2023-02-28T08:39:50;24.30;;;17.45;;
75926;SDS011;64605;48.296;16.416;2023-02-28T08:42:16;24.92;;;16.33;;
75926;SDS011;64605;48.296;16.416;2023-02-28T08:44:41;24.80;;;16.55;;
75926;SDS011;64605;48.296;16.416;2023-02-28T08:47:07;23.95;;;16.92;;
75926;SDS011;64605;48.296;16.416;2023-02-28T08:49:33;21.67;;;16.83;;
75926;SDS011;64605;48.296;16.416;2023-02-28T08:51:59;22.52;;;16.65;;
75926;SDS011;64605;48.296;16.416;2023-02-28T08:54:24;22.98;;;16.70;;
75926;SDS011;64605;48.296;16.416;2023-02-28T08:56:50;21.48;;;16.98;;
75926;SDS011;64605;48.296;16.416;2023-02-28T08:59:15;22.95;;;17.42;;
75926;SDS011;64605;48.296;16.416;2023-02-28T09:01:41;25.20;;;16.40;;
75926;SDS011;64605;48.296;16.416;2023-02-28T09:04:08;21.30;;;16.42;;
75926;SDS011;64605;48.296;16.416;2023-02-28T09:06:35;21.27;;;16.33;;
75926;SDS011;64605;48.296;16.416;2023-02-28T09:09:01;22.95;;;15.95;;
75926;SDS011;64605;48.296;16.416;2023-02-28T09:11:29;22.88;;;16.80;;
75926;SDS011;64605;48.296;16.416;2023-02-28T09:13:54;20.98;;;16.70;;
75926;SDS011;64605;48.296;16.416;2023-02-28T09:16:20;24.05;;;17.33;;
75926;SDS011;64605;48.296;16.416;2023-02-28T09:18:47;20.15;;;16.50;;
75926;SDS011;64605;48.296;16.416;2023-02-28T09:21:14;22.63;;;17.13;;
75926;SDS011;64605;48.296;16.416;2023-02-28T09:23:41;21.55;;;17.30;;
75926;SDS011;64605;48.296;16.416;2023-02-28T09:26:18;19.92;;;16.50;;
75926;SDS011;64605;48.296;16.416;2023-02-28T09:28:47;22.60;;;18.40;;
75926;SDS011;64605;48.296;16.416;2023-02-28T09:31:20;22.58;;;16.67;;
75926;SDS011;64605;48.296;16.416;2023-02-28T09:33:48;20.10;;;17.65;;
75926;SDS011;64605;48.296;16.416;2023-02-28T09:36:15;19.40;;;16.88;;
75926;SDS011;64605;48.296;16.416;2023-02-28T09:38:41;20.27;;;17.05;;
75926;SDS011;64605;48.296;16.416;2023-02-28T09:41:15;20.08;;;16.98;;
75926;SDS011;64605;48.296;16.416;2023-02-28T09:43:46;19.33;;;17.25;;
75926;SDS011;64605;48.296;16.416;2023-02-28T09:48:52;19.40;;;17.27;;
75926;SDS011;64605;48.296;16.416;2023-02-28T09:51:30;18.15;;;15.77;;
75926;SDS011;64605;48.296;16.416;2023-02-28T09:54:20;20.92;;;16.67;;
75926;SDS011;64605;48.296;16.416;2023-02-28T09:56:50;22.08;;;16.88;;
75926;SDS011;64605;48.296;16.416;2023-02-28T09:59:29;19.13;;;16.95;;
75926;SDS011;64605;48.296;16.416;2023-02-28T10:02:04;18.98;;;16.17;;
75926;SDS011;64605;48.296;16.416;2023-02-28T10:05:00;17.58;;;15.73;;
75926;SDS011;64605;48.296;16.416;2023-02-28T10:10:33;17.63;;;15.70;;
75926;SDS011;64605;48.296;16.416;2023-02-28T10:13:02;22.13;;;17.35;;
75926;SDS011;64605;48.296;16.416;2023-02-28T10:15:31;19.23;;;16.08;;
75926;SDS011;64605;48.296;16.416;2023-02-28T10:18:06;20.17;;;17.58;;
75926;SDS011;64605;48.296;16.416;2023-02-28T10:20:38;19.00;;;16.98;;
75926;SDS011;64605;48.296;16.416;2023-02-28T10:23:24;16.52;;;14.57;;
75926;SDS011;64605;48.296;16.416;2023-02-28T10:26:01;17.23;;;15.40;;
75926;SDS011;64605;48.296;16.416;2023-02-28T10:28:36;18.15;;;15.40;;
75926;SDS011;64605;48.296;16.416;2023-02-28T10:31:02;17.48;;;15.68;;
75926;SDS011;64605;48.296;16.416;2023-02-28T10:33:29;18.48;;;16.45;;
75926;SDS011;64605;48.296;16.416;2023-02-28T10:35:59;18.90;;;16.95;;
75926;SDS011;64605;48.296;16.416;2023-02-28T10:38:27;18.95;;;16.95;;
75926;SDS011;64605;48.296;16.416;2023-02-28T10:41:05;18.67;;;16.45;;
75926;SDS011;64605;48.296;16.416;2023-02-28T10:43:50;19.00;;;17.08;;
75926;SDS011;64605;48.296;16.416;2023-02-28T10:46:16;19.88;;;17.80;;
75926;SDS011;64605;48.296;16.416;2023-02-28T10:49:05;19.73;;;17.63;;
75926;SDS011;64605;48.296;16.416;2023-02-28T10:51:38;18.15;;;15.85;;
75926;SDS011;64605;48.296;16.416;2023-02-28T10:54:05;18.73;;;16.73;;
75926;SDS011;64605;48.296;16.416;2023-02-28T10:56:39;19.02;;;16.35;;
75926;SDS011;64605;48.296;16.416;2023-02-28T11:01:35;23.77;;;15.88;;
75926;SDS011;64605;48.296;16.416;2023-02-28T11:04:38;19.27;;;15.00;;
75926;SDS011;64605;48.296;16.416;2023-02-28T11:07:16;18.00;;;15.98;;
75926;SDS011;64605;48.296;16.416;2023-02-28T11:09:44;18.30;;;15.73;;
75926;SDS011;64605;48.296;16.416;2023-02-28T11:12:19;19.50;;;17.02;;
75926;SDS011;64605;48.296;16.416;2023-02-28T11:14:54;19.02;;;15.70;;
75926;SDS011;64605;48.296;16.416;2023-02-28T11:17:24;17.85;;;15.52;;
75926;SDS011;64605;48.296;16.416;2023-02-28T11:19:57;18.23;;;16.33;;
75926;SDS011;64605;48.296;16.416;2023-02-28T11:22:28;16.48;;;14.77;;
75926;SDS011;64605;48.296;16.416;2023-02-28T11:24:58;17.35;;;15.65;;
75926;SDS011;64605;48.296;16.416;2023-02-28T11:29:55;17.83;;;15.20;;
75926;SDS011;64605;48.296;16.416;2023-02-28T11:32:23;18.05;;;16.05;;
75926;SDS011;64605;48.296;16.416;2023-02-28T11:35:04;18.77;;;16.45;;
75926;SDS011;64605;48.296;16.416;2023-02-28T11:37:35;18.70;;;15.90;;
75926;SDS011;64605;48.296;16.416;2023-02-28T11:40:02;17.92;;;16.00;;
75926;SDS011;64605;48.296;16.416;2023-02-28T11:56:37;19.38;;;15.50;;
75926;SDS011;64605;48.296;16.416;2023-02-28T12:02:16;19.58;;;14.00;;
75926;SDS011;64605;48.296;16.416;2023-02-28T12:13:27;19.58;;;15.10;;
75926;SDS011;64605;48.296;16.416;2023-02-28T12:16:06;22.00;;;16.13;;
75926;SDS011;64605;48.296;16.416;2023-02-28T12:18:55;19.70;;;16.00;;
75926;SDS011;64605;48.296;16.416;2023-02-28T12:24:14;19.73;;;16.33;;
75926;SDS011;64605;48.296;16.416;2023-02-28T12:26:58;19.77;;;15.07;;
75926;SDS011;64605;48.296;16.416;2023-02-28T12:32:05;18.40;;;15.52;;
75926;SDS011;64605;48.296;16.416;2023-02-28T12:37:29;23.77;;;15.38;;
75926;SDS011;64605;48.296;16.416;2023-02-28T12:40:05;19.45;;;15.80;;
75926;SDS011;64605;48.296;16.416;2023-02-28T12:42:51;21.88;;;16.70;;
75926;SDS011;64605;48.296;16.416;2023-02-28T12:45:24;17.95;;;15.10;;
75926;SDS011;64605;48.296;16.416;2023-02-28T12:48:06;22.58;;;15.52;;
75926;SDS011;64605;48.296;16.416;2023-02-28T12:50:35;18.63;;;14.85;;
75926;SDS011;64605;48.296;16.416;2023-02-28T12:53:09;20.65;;;15.18;;
75926;SDS011;64605;48.296;16.416;2023-02-28T13:04:14;21.90;;;14.38;;
75926;SDS011;64605;48.296;16.416;2023-02-28T13:09:27;16.88;;;14.20;;
75926;SDS011;64605;48.296;16.416;2023-02-28T13:11:54;17.48;;;13.63;;
75926;SDS011;64605;48.296;16.416;2023-02-28T13:22:20;20.20;;;15.05;;
75926;SDS011;64605;48.296;16.416;2023-02-28T13:25:04;19.00;;;14.45;;
75926;SDS011;64605;48.296;16.416;2023-02-28T13:27:48;20.85;;;14.88;;
75926;SDS011;64605;48.296;16.416;2023-02-28T14:01:16;15.95;;;12.00;;
75926;SDS011;64605;48.296;16.416;2023-02-28T14:11:40;18.58;;;12.82;;
75926;SDS011;64605;48.296;16.416;2023-02-28T14:14:08;13.75;;;11.68;;
75926;SDS011;64605;48.296;16.416;2023-02-28T14:16:54;16.67;;;13.20;;
75926;SDS011;64605;48.296;16.416;2023-02-28T14:19:27;15.88;;;12.05;;
75926;SDS011;64605;48.296;16.416;2023-02-28T14:38:31;19.70;;;14.13;;
75926;SDS011;64605;48.296;16.416;2023-02-28T14:41:02;19.27;;;14.30;;
75926;SDS011;64605;48.296;16.416;2023-02-28T14:43:31;19.13;;;15.05;;
75926;SDS011;64605;48.296;16.416;2023-02-28T14:46:01;17.80;;;14.63;;
75926;SDS011;64605;48.296;16.416;2023-02-28T14:48:29;22.45;;;15.45;;
75926;SDS011;64605;48.296;16.416;2023-02-28T14:50:58;22.27;;;14.07;;
75926;SDS011;64605;48.296;16.416;2023-02-28T14:53:26;18.90;;;14.30;;
75926;SDS011;64605;48.296;16.416;2023-02-28T14:55:54;21.60;;;14.32;;
75926;SDS011;64605;48.296;16.416;2023-02-28T14:58:25;18.95;;;14.13;;
75926;SDS011;64605;48.296;16.416;2023-02-28T15:00:53;18.60;;;15.18;;
75926;SDS011;64605;48.296;16.416;2023-02-28T15:03:27;19.73;;;14.75;;
75926;SDS011;64605;48.296;16.416;2023-02-28T15:05:58;18.55;;;13.73;;
75926;SDS011;64605;48.296;16.416;2023-02-28T15:08:42;18.73;;;13.25;;
75926;SDS011;64605;48.296;16.416;2023-02-28T15:13:47;18.17;;;13.35;;
75926;SDS011;64605;48.296;16.416;2023-02-28T15:16:19;19.40;;;12.63;;
75926;SDS011;64605;48.296;16.416;2023-02-28T15:18:52;15.93;;;13.13;;
75926;SDS011;64605;48.296;16.416;2023-02-28T15:21:27;17.20;;;13.73;;
75926;SDS011;64605;48.296;16.416;2023-02-28T15:24:00;16.60;;;13.45;;
75926;SDS011;64605;48.296;16.416;2023-02-28T15:26:34;17.90;;;12.98;;
75926;SDS011;64605;48.296;16.416;2023-02-28T15:29:05;20.17;;;13.05;;
75926;SDS011;64605;48.296;16.416;2023-02-28T15:31:34;18.58;;;13.48;;
75926;SDS011;64605;48.296;16.416;2023-02-28T15:34:05;17.55;;;13.95;;
75926;SDS011;64605;48.296;16.416;2023-02-28T15:36:33;20.52;;;13.95;;
75926;SDS011;64605;48.296;16.416;2023-02-28T15:39:02;15.00;;;12.63;;
75926;SDS011;64605;48.296;16.416;2023-02-28T15:41:43;19.88;;;13.60;;
75926;SDS011;64605;48.296;16.416;2023-02-28T15:44:16;17.90;;;13.68;;
75926;SDS011;64605;48.296;16.416;2023-02-28T15:47:14;18.00;;;13.70;;
75926;SDS011;64605;48.296;16.416;2023-02-28T15:49:49;19.60;;;14.05;;
75926;SDS011;64605;48.296;16.416;2023-02-28T15:52:19;17.50;;;13.07;;
75926;SDS011;64605;48.296;16.416;2023-02-28T15:57:43;21.70;;;13.90;;
75926;SDS011;64605;48.296;16.416;2023-02-28T16:00:11;19.75;;;14.13;;
75926;SDS011;64605;48.296;16.416;2023-02-28T16:02:40;17.83;;;13.55;;
75926;SDS011;64605;48.296;16.416;2023-02-28T16:07:35;19.55;;;14.35;;
75926;SDS011;64605;48.296;16.416;2023-02-28T16:10:02;17.38;;;13.43;;
75926;SDS011;64605;48.296;16.416;2023-02-28T16:12:30;15.35;;;12.95;;
75926;SDS011;64605;48.296;16.416;2023-02-28T16:14:59;19.45;;;13.02;;
75926;SDS011;64605;48.296;16.416;2023-02-28T16:17:35;18.98;;;12.85;;
75926;SDS011;64605;48.296;16.416;2023-02-28T16:20:17;18.98;;;13.00;;
75926;SDS011;64605;48.296;16.416;2023-02-28T16:22:43;19.38;;;14.10;;
75926;SDS011;64605;48.296;16.416;2023-02-28T16:25:16;19.67;;;13.30;;
75926;SDS011;64605;48.296;16.416;2023-02-28T16:27:43;23.17;;;13.07;;
75926;SDS011;64605;48.296;16.416;2023-02-28T16:30:22;18.77;;;13.27;;
75926;SDS011;64605;48.296;16.416;2023-02-28T16:32:49;15.55;;;13.15;;
75926;SDS011;64605;48.296;16.416;2023-02-28T16:35:16;18.02;;;14.27;;
75926;SDS011;64605;48.296;16.416;2023-02-28T16:37:43;18.23;;;14.43;;
75926;SDS011;64605;48.296;16.416;2023-02-28T16:40:13;18.23;;;14.13;;
75926;SDS011;64605;48.296;16.416;2023-02-28T16:42:46;19.25;;;14.25;;
75926;SDS011;64605;48.296;16.416;2023-02-28T16:45:16;18.52;;;12.23;;
75926;SDS011;64605;48.296;16.416;2023-02-28T16:47:44;16.38;;;12.50;;
75926;SDS011;64605;48.296;16.416;2023-02-28T16:50:29;19.35;;;11.95;;
75926;SDS011;64605;48.296;16.416;2023-02-28T16:52:55;17.05;;;12.02;;
75926;SDS011;64605;48.296;16.416;2023-02-28T16:55:24;38.67;;;13.20;;
75926;SDS011;64605;48.296;16.416;2023-02-28T16:57:51;20.30;;;12.02;;
75926;SDS011;64605;48.296;16.416;2023-02-28T17:00:22;16.98;;;11.63;;
75926;SDS011;64605;48.296;16.416;2023-02-28T17:02:48;15.65;;;11.85;;
75926;SDS011;64605;48.296;16.416;2023-02-28T17:05:14;17.40;;;11.13;;
75926;SDS011;64605;48.296;16.416;2023-02-28T17:07:40;22.42;;;14.38;;
75926;SDS011;64605;48.296;16.416;2023-02-28T17:12:41;20.30;;;13.18;;
75926;SDS011;64605;48.296;16.416;2023-02-28T17:15:08;20.40;;;13.65;;